sensor_id;sensor_type;location;lat;lon;timestamp;temperature;humidity
66144;SHT31;52947;50.842;6.084;2023-06-14T00:02:05;19.22;62.77
66144;SHT31;52947;50.842;6.084;2023-06-14T00:04:35;19.26;62.71
66144;SHT31;52947;50.842;6.084;2023-06-14T00:07:05;19.15;63.12
66144;SHT31;52947;50.842;6.084;2023-06-14T00:09:35;19.19;62.77
66144;SHT31;52947;50.842;6.084;2023-06-14T00:12:03;19.13;63.22
66144;SHT31;52947;50.842;6.084;2023-06-14T00:14:34;19.13;63.27
66144;SHT31;52947;50.842;6.084;2023-06-14T00:17:02;19.27;62.93
66144;SHT31;52947;50.842;6.084;2023-06-14T00:19:30;19.34;62.66
66144;SHT31;52947;50.842;6.084;2023-06-14T00:22:02;19.24;63.02
66144;SHT31;52947;50.842;6.084;2023-06-14T00:24:29;19.24;63.34
66144;SHT31;52947;50.842;6.084;2023-06-14T00:26:57;19.30;63.23
66144;SHT31;52947;50.842;6.084;2023-06-14T00:29:25;19.40;63.01
66144;SHT31;52947;50.842;6.084;2023-06-14T00:31:55;19.42;62.95
66144;SHT31;52947;50.842;6.084;2023-06-14T00:34:25;19.26;63.40
66144;SHT31;52947;50.842;6.084;2023-06-14T00:36:53;19.16;63.80
66144;SHT31;52947;50.842;6.084;2023-06-14T00:39:22;19.01;64.15
66144;SHT31;52947;50.842;6.084;2023-06-14T00:41:50;19.02;64.01
66144;SHT31;52947;50.842;6.084;2023-06-14T00:44:19;18.85;64.35
66144;SHT31;52947;50.842;6.084;2023-06-14T00:46:48;18.92;64.44
66144;SHT31;52947;50.842;6.084;2023-06-14T00:49:18;19.02;63.99
66144;SHT31;52947;50.842;6.084;2023-06-14T00:51:46;19.06;64.01
66144;SHT31;52947;50.842;6.084;2023-06-14T00:54:14;19.15;63.79
66144;SHT31;52947;50.842;6.084;2023-06-14T00:56:43;19.15;63.87
66144;SHT31;52947;50.842;6.084;2023-06-14T00:59:12;19.08;63.45
66144;SHT31;52947;50.842;6.084;2023-06-14T01:01:40;18.87;63.73
66144;SHT31;52947;50.842;6.084;2023-06-14T01:04:08;18.95;64.41
66144;SHT31;52947;50.842;6.084;2023-06-14T01:06:40;19.08;63.91
66144;SHT31;52947;50.842;6.084;2023-06-14T01:09:17;19.24;63.34
66144;SHT31;52947;50.842;6.084;2023-06-14T01:11:52;19.06;63.74
66144;SHT31;52947;50.842;6.084;2023-06-14T01:14:22;18.78;64.66
66144;SHT31;52947;50.842;6.084;2023-06-14T01:16:52;18.68;65.40
66144;SHT31;52947;50.842;6.084;2023-06-14T01:19:22;18.34;66.47
66144;SHT31;52947;50.842;6.084;2023-06-14T01:21:53;18.29;66.87
66144;SHT31;52947;50.842;6.084;2023-06-14T01:24:23;18.36;66.57
66144;SHT31;52947;50.842;6.084;2023-06-14T01:26:53;18.47;66.73
66144;SHT31;52947;50.842;6.084;2023-06-14T01:29:23;18.57;66.62
66144;SHT31;52947;50.842;6.084;2023-06-14T01:31:53;18.60;66.67
66144;SHT31;52947;50.842;6.084;2023-06-14T01:34:21;18.71;66.29
66144;SHT31;52947;50.842;6.084;2023-06-14T01:36:52;18.79;65.93
66144;SHT31;52947;50.842;6.084;2023-06-14T01:39:23;18.45;65.67
66144;SHT31;52947;50.842;6.084;2023-06-14T01:41:51;18.13;66.96
66144;SHT31;52947;50.842;6.084;2023-06-14T01:44:20;17.61;68.07
66144;SHT31;52947;50.842;6.084;2023-06-14T01:46:49;17.43;69.35
66144;SHT31;52947;50.842;6.084;2023-06-14T01:49:17;17.65;69.26
66144;SHT31;52947;50.842;6.084;2023-06-14T01:51:45;17.69;68.42
66144;SHT31;52947;50.842;6.084;2023-06-14T01:54:14;17.48;69.10
66144;SHT31;52947;50.842;6.084;2023-06-14T01:56:44;17.32;67.73
66144;SHT31;52947;50.842;6.084;2023-06-14T01:59:12;16.98;69.30
66144;SHT31;52947;50.842;6.084;2023-06-14T02:01:40;16.94;69.79
66144;SHT31;52947;50.842;6.084;2023-06-14T02:04:08;16.90;69.62
66144;SHT31;52947;50.842;6.084;2023-06-14T02:06:37;16.66;69.75
66144;SHT31;52947;50.842;6.084;2023-06-14T02:09:05;16.29;71.39
66144;SHT31;52947;50.842;6.084;2023-06-14T02:11:32;16.20;72.59
66144;SHT31;52947;50.842;6.084;2023-06-14T02:14:02;16.06;72.61
66144;SHT31;52947;50.842;6.084;2023-06-14T02:16:30;16.22;72.90
66144;SHT31;52947;50.842;6.084;2023-06-14T02:19:02;16.22;72.47
66144;SHT31;52947;50.842;6.084;2023-06-14T02:21:30;16.66;71.57
66144;SHT31;52947;50.842;6.084;2023-06-14T02:23:58;16.43;70.28
66144;SHT31;52947;50.842;6.084;2023-06-14T02:26:28;16.33;71.79
66144;SHT31;52947;50.842;6.084;2023-06-14T02:28:58;16.67;71.71
66144;SHT31;52947;50.842;6.084;2023-06-14T02:31:28;16.80;70.85
66144;SHT31;52947;50.842;6.084;2023-06-14T02:33:56;16.90;71.01
66144;SHT31;52947;50.842;6.084;2023-06-14T02:36:24;16.91;70.76
66144;SHT31;52947;50.842;6.084;2023-06-14T02:38:53;17.35;69.68
66144;SHT31;52947;50.842;6.084;2023-06-14T02:41:21;17.56;68.84
66144;SHT31;52947;50.842;6.084;2023-06-14T02:43:52;17.55;68.67
66144;SHT31;52947;50.842;6.084;2023-06-14T02:46:20;17.70;68.75
66144;SHT31;52947;50.842;6.084;2023-06-14T02:48:50;17.62;67.83
66144;SHT31;52947;50.842;6.084;2023-06-14T02:51:18;17.61;68.33
66144;SHT31;52947;50.842;6.084;2023-06-14T02:53:46;17.19;68.94
66144;SHT31;52947;50.842;6.084;2023-06-14T02:56:14;17.19;69.91
66144;SHT31;52947;50.842;6.084;2023-06-14T02:58:45;17.32;69.99
66144;SHT31;52947;50.842;6.084;2023-06-14T03:01:15;17.22;69.08
66144;SHT31;52947;50.842;6.084;2023-06-14T03:03:44;17.12;69.64
66144;SHT31;52947;50.842;6.084;2023-06-14T03:06:14;17.06;70.08
66144;SHT31;52947;50.842;6.084;2023-06-14T03:08:45;17.24;69.20
66144;SHT31;52947;50.842;6.084;2023-06-14T03:11:17;16.64;68.99
66144;SHT31;52947;50.842;6.084;2023-06-14T03:13:47;16.39;70.78
66144;SHT31;52947;50.842;6.084;2023-06-14T03:16:18;16.23;71.43
66144;SHT31;52947;50.842;6.084;2023-06-14T03:18:49;16.59;70.86
66144;SHT31;52947;50.842;6.084;2023-06-14T03:21:19;16.57;70.91
66144;SHT31;52947;50.842;6.084;2023-06-14T03:23:48;16.88;70.66
66144;SHT31;52947;50.842;6.084;2023-06-14T03:26:16;17.14;70.10
66144;SHT31;52947;50.842;6.084;2023-06-14T03:28:47;17.42;69.02
66144;SHT31;52947;50.842;6.084;2023-06-14T03:31:16;17.59;68.33
66144;SHT31;52947;50.842;6.084;2023-06-14T03:33:47;17.63;68.33
66144;SHT31;52947;50.842;6.084;2023-06-14T03:36:15;17.78;68.01
66144;SHT31;52947;50.842;6.084;2023-06-14T03:38:46;17.87;67.56
66144;SHT31;52947;50.842;6.084;2023-06-14T03:41:16;17.97;67.35
66144;SHT31;52947;50.842;6.084;2023-06-14T03:43:44;18.00;66.87
66144;SHT31;52947;50.842;6.084;2023-06-14T03:46:13;18.04;67.17
66144;SHT31;52947;50.842;6.084;2023-06-14T03:48:41;18.00;67.22
66144;SHT31;52947;50.842;6.084;2023-06-14T03:51:10;17.75;67.38
66144;SHT31;52947;50.842;6.084;2023-06-14T03:53:38;17.56;67.90
66144;SHT31;52947;50.842;6.084;2023-06-14T03:56:28;17.48;68.33
66144;SHT31;52947;50.842;6.084;2023-06-14T03:58:57;17.46;68.32
66144;SHT31;52947;50.842;6.084;2023-06-14T04:01:27;17.46;67.65
66144;SHT31;52947;50.842;6.084;2023-06-14T04:03:58;17.52;68.15
66144;SHT31;52947;50.842;6.084;2023-06-14T04:06:26;17.42;68.02
66144;SHT31;52947;50.842;6.084;2023-06-14T04:08:59;17.43;68.39
66144;SHT31;52947;50.842;6.084;2023-06-14T04:11:31;17.31;67.66
66144;SHT31;52947;50.842;6.084;2023-06-14T04:14:01;17.28;67.89
66144;SHT31;52947;50.842;6.084;2023-06-14T04:16:29;17.21;67.88
66144;SHT31;52947;50.842;6.084;2023-06-14T04:19:00;17.07;68.51
66144;SHT31;52947;50.842;6.084;2023-06-14T04:21:28;17.14;68.25
66144;SHT31;52947;50.842;6.084;2023-06-14T04:23:58;17.11;68.01
66144;SHT31;52947;50.842;6.084;2023-06-14T04:26:31;16.88;68.33
66144;SHT31;52947;50.842;6.084;2023-06-14T04:29:00;17.01;68.42
66144;SHT31;52947;50.842;6.084;2023-06-14T04:31:33;17.08;68.13
66144;SHT31;52947;50.842;6.084;2023-06-14T04:34:05;17.04;67.99
66144;SHT31;52947;50.842;6.084;2023-06-14T04:36:34;17.07;67.24
66144;SHT31;52947;50.842;6.084;2023-06-14T04:39:04;17.15;67.95
66144;SHT31;52947;50.842;6.084;2023-06-14T04:41:34;17.11;67.53
66144;SHT31;52947;50.842;6.084;2023-06-14T04:44:03;17.08;66.45
66144;SHT31;52947;50.842;6.084;2023-06-14T04:46:37;17.28;67.28
66144;SHT31;52947;50.842;6.084;2023-06-14T04:49:13;17.35;67.11
66144;SHT31;52947;50.842;6.084;2023-06-14T04:51:42;17.51;66.20
66144;SHT31;52947;50.842;6.084;2023-06-14T04:54:10;17.65;66.69
66144;SHT31;52947;50.842;6.084;2023-06-14T04:56:42;17.69;66.50
66144;SHT31;52947;50.842;6.084;2023-06-14T04:59:12;17.78;65.84
66144;SHT31;52947;50.842;6.084;2023-06-14T05:01:41;17.94;65.68
66144;SHT31;52947;50.842;6.084;2023-06-14T05:04:15;18.29;65.13
66144;SHT31;52947;50.842;6.084;2023-06-14T05:06:43;18.67;64.48
66144;SHT31;52947;50.842;6.084;2023-06-14T05:09:13;19.12;63.53
66144;SHT31;52947;50.842;6.084;2023-06-14T05:11:42;19.66;61.99
66144;SHT31;52947;50.842;6.084;2023-06-14T05:14:11;20.41;60.38
66144;SHT31;52947;50.842;6.084;2023-06-14T05:16:40;21.03;58.84
66144;SHT31;52947;50.842;6.084;2023-06-14T05:19:09;21.41;55.86
66144;SHT31;52947;50.842;6.084;2023-06-14T05:21:37;22.04;54.48
66144;SHT31;52947;50.842;6.084;2023-06-14T05:24:09;22.46;53.96
66144;SHT31;52947;50.842;6.084;2023-06-14T05:26:38;22.98;52.71
66144;SHT31;52947;50.842;6.084;2023-06-14T05:29:07;23.08;52.72
66144;SHT31;52947;50.842;6.084;2023-06-14T05:31:35;23.72;52.07
66144;SHT31;52947;50.842;6.084;2023-06-14T05:34:03;24.19;51.55
66144;SHT31;52947;50.842;6.084;2023-06-14T05:36:31;25.18;49.78
66144;SHT31;52947;50.842;6.084;2023-06-14T05:38:59;23.68;51.30
66144;SHT31;52947;50.842;6.084;2023-06-14T05:41:29;25.05;49.52
66144;SHT31;52947;50.842;6.084;2023-06-14T05:43:57;25.60;49.11
66144;SHT31;52947;50.842;6.084;2023-06-14T05:46:27;26.31;48.25
66144;SHT31;52947;50.842;6.084;2023-06-14T05:48:56;26.17;47.70
66144;SHT31;52947;50.842;6.084;2023-06-14T05:51:24;26.53;47.21
66144;SHT31;52947;50.842;6.084;2023-06-14T05:53:53;26.32;47.66
66144;SHT31;52947;50.842;6.084;2023-06-14T05:56:21;26.78;47.16
66144;SHT31;52947;50.842;6.084;2023-06-14T05:58:49;27.57;45.33
66144;SHT31;52947;50.842;6.084;2023-06-14T06:01:17;28.11;44.02
66144;SHT31;52947;50.842;6.084;2023-06-14T06:03:47;27.65;44.01
66144;SHT31;52947;50.842;6.084;2023-06-14T06:06:15;28.01;43.88
66144;SHT31;52947;50.842;6.084;2023-06-14T06:08:43;28.80;42.99
66144;SHT31;52947;50.842;6.084;2023-06-14T06:11:11;29.07;40.93
66144;SHT31;52947;50.842;6.084;2023-06-14T06:13:39;27.64;43.02
66144;SHT31;52947;50.842;6.084;2023-06-14T06:16:07;27.53;43.41
66144;SHT31;52947;50.842;6.084;2023-06-14T06:18:35;26.95;43.95
66144;SHT31;52947;50.842;6.084;2023-06-14T06:21:05;27.24;43.57
66144;SHT31;52947;50.842;6.084;2023-06-14T06:23:33;27.43;43.15
66144;SHT31;52947;50.842;6.084;2023-06-14T06:26:02;27.50;43.50
66144;SHT31;52947;50.842;6.084;2023-06-14T06:28:30;27.61;42.25
66144;SHT31;52947;50.842;6.084;2023-06-14T06:30:58;27.55;42.13
66144;SHT31;52947;50.842;6.084;2023-06-14T06:33:30;27.34;43.15
66144;SHT31;52947;50.842;6.084;2023-06-14T06:35:58;26.80;44.73
66144;SHT31;52947;50.842;6.084;2023-06-14T06:38:27;27.27;42.92
66144;SHT31;52947;50.842;6.084;2023-06-14T06:40:55;26.61;44.35
66144;SHT31;52947;50.842;6.084;2023-06-14T06:43:23;26.78;43.70
66144;SHT31;52947;50.842;6.084;2023-06-14T06:45:51;27.19;43.74
66144;SHT31;52947;50.842;6.084;2023-06-14T06:48:19;28.05;41.94
66144;SHT31;52947;50.842;6.084;2023-06-14T06:50:47;27.53;42.46
66144;SHT31;52947;50.842;6.084;2023-06-14T06:53:15;27.44;42.59
66144;SHT31;52947;50.842;6.084;2023-06-14T06:55:57;28.13;41.45
66144;SHT31;52947;50.842;6.084;2023-06-14T06:58:25;28.48;41.43
66144;SHT31;52947;50.842;6.084;2023-06-14T07:00:53;28.52;41.14
66144;SHT31;52947;50.842;6.084;2023-06-14T07:03:21;28.84;40.52
66144;SHT31;52947;50.842;6.084;2023-06-14T07:05:49;29.59;39.83
66144;SHT31;52947;50.842;6.084;2023-06-14T07:08:17;28.36;41.08
66144;SHT31;52947;50.842;6.084;2023-06-14T07:10:45;28.80;39.75
66144;SHT31;52947;50.842;6.084;2023-06-14T07:13:15;29.28;40.12
66144;SHT31;52947;50.842;6.084;2023-06-14T07:15:43;27.39;43.68
66144;SHT31;52947;50.842;6.084;2023-06-14T07:18:10;27.14;43.00
66144;SHT31;52947;50.842;6.084;2023-06-14T07:20:42;28.15;42.57
66144;SHT31;52947;50.842;6.084;2023-06-14T07:23:10;28.39;41.69
66144;SHT31;52947;50.842;6.084;2023-06-14T07:25:38;26.39;44.62
66144;SHT31;52947;50.842;6.084;2023-06-14T07:28:06;26.88;43.89
66144;SHT31;52947;50.842;6.084;2023-06-14T07:30:35;27.82;42.38
66144;SHT31;52947;50.842;6.084;2023-06-14T07:33:03;27.95;41.94
66144;SHT31;52947;50.842;6.084;2023-06-14T07:35:32;28.52;41.23
66144;SHT31;52947;50.842;6.084;2023-06-14T07:38:00;28.76;41.35
66144;SHT31;52947;50.842;6.084;2023-06-14T07:40:28;28.12;40.97
66144;SHT31;52947;50.842;6.084;2023-06-14T07:42:56;26.90;43.64
66144;SHT31;52947;50.842;6.084;2023-06-14T07:45:24;27.60;42.05
66144;SHT31;52947;50.842;6.084;2023-06-14T07:47:53;28.73;41.39
66144;SHT31;52947;50.842;6.084;2023-06-14T07:50:22;29.10;40.05
66144;SHT31;52947;50.842;6.084;2023-06-14T07:52:50;28.29;41.41
66144;SHT31;52947;50.842;6.084;2023-06-14T07:55:18;28.42;40.49
66144;SHT31;52947;50.842;6.084;2023-06-14T07:57:45;25.93;44.86
66144;SHT31;52947;50.842;6.084;2023-06-14T08:00:14;27.55;43.31
66144;SHT31;52947;50.842;6.084;2023-06-14T08:02:43;28.08;41.41
66144;SHT31;52947;50.842;6.084;2023-06-14T08:05:12;28.59;40.73
66144;SHT31;52947;50.842;6.084;2023-06-14T08:07:41;27.46;42.14
66144;SHT31;52947;50.842;6.084;2023-06-14T08:10:09;28.33;40.45
66144;SHT31;52947;50.842;6.084;2023-06-14T08:12:37;28.41;40.72
66144;SHT31;52947;50.842;6.084;2023-06-14T08:15:06;28.76;40.17
66144;SHT31;52947;50.842;6.084;2023-06-14T08:17:41;28.45;39.27
66144;SHT31;52947;50.842;6.084;2023-06-14T08:20:10;28.06;39.81
66144;SHT31;52947;50.842;6.084;2023-06-14T08:22:39;27.65;39.79
66144;SHT31;52947;50.842;6.084;2023-06-14T08:25:09;28.38;39.11
66144;SHT31;52947;50.842;6.084;2023-06-14T08:27:37;28.04;39.63
66144;SHT31;52947;50.842;6.084;2023-06-14T08:30:06;27.62;40.36
66144;SHT31;52947;50.842;6.084;2023-06-14T08:32:35;27.98;39.65
66144;SHT31;52947;50.842;6.084;2023-06-14T08:35:04;27.17;41.73
66144;SHT31;52947;50.842;6.084;2023-06-14T08:37:32;28.26;39.60
66144;SHT31;52947;50.842;6.084;2023-06-14T08:40:02;28.29;39.63
66144;SHT31;52947;50.842;6.084;2023-06-14T08:42:33;28.93;38.63
66144;SHT31;52947;50.842;6.084;2023-06-14T08:45:02;27.84;38.92
66144;SHT31;52947;50.842;6.084;2023-06-14T08:47:30;28.18;38.78
66144;SHT31;52947;50.842;6.084;2023-06-14T08:50:08;28.52;38.52
66144;SHT31;52947;50.842;6.084;2023-06-14T08:52:55;28.29;38.65
66144;SHT31;52947;50.842;6.084;2023-06-14T08:55:26;27.00;40.17
66144;SHT31;52947;50.842;6.084;2023-06-14T09:00:25;28.38;37.90
66144;SHT31;52947;50.842;6.084;2023-06-14T09:02:55;27.95;38.44
66144;SHT31;52947;50.842;6.084;2023-06-14T09:05:25;28.70;38.43
66144;SHT31;52947;50.842;6.084;2023-06-14T09:07:54;29.52;37.15
66144;SHT31;52947;50.842;6.084;2023-06-14T09:10:25;30.13;37.23
66144;SHT31;52947;50.842;6.084;2023-06-14T09:12:55;29.72;38.02
66144;SHT31;52947;50.842;6.084;2023-06-14T09:15:23;29.32;37.07
66144;SHT31;52947;50.842;6.084;2023-06-14T09:17:51;29.35;37.47
66144;SHT31;52947;50.842;6.084;2023-06-14T09:20:19;28.90;37.91
66144;SHT31;52947;50.842;6.084;2023-06-14T09:22:47;28.97;37.70
66144;SHT31;52947;50.842;6.084;2023-06-14T09:25:15;29.11;38.53
66144;SHT31;52947;50.842;6.084;2023-06-14T09:28:06;29.21;38.13
66144;SHT31;52947;50.842;6.084;2023-06-14T09:30:36;28.26;38.43
66144;SHT31;52947;50.842;6.084;2023-06-14T09:33:04;28.33;39.08
66144;SHT31;52947;50.842;6.084;2023-06-14T09:35:32;28.41;39.17
66144;SHT31;52947;50.842;6.084;2023-06-14T09:38:00;27.50;40.03
66144;SHT31;52947;50.842;6.084;2023-06-14T09:40:28;27.51;39.33
66144;SHT31;52947;50.842;6.084;2023-06-14T09:42:56;27.31;39.95
66144;SHT31;52947;50.842;6.084;2023-06-14T09:45:27;27.70;39.32
66144;SHT31;52947;50.842;6.084;2023-06-14T09:47:58;26.24;41.25
66144;SHT31;52947;50.842;6.084;2023-06-14T09:50:33;26.41;41.15
66144;SHT31;52947;50.842;6.084;2023-06-14T09:53:05;26.61;40.16
66144;SHT31;52947;50.842;6.084;2023-06-14T09:55:36;26.22;39.93
66144;SHT31;52947;50.842;6.084;2023-06-14T09:58:05;26.04;40.01
66144;SHT31;52947;50.842;6.084;2023-06-14T10:00:36;27.03;39.88
66144;SHT31;52947;50.842;6.084;2023-06-14T10:03:11;26.99;40.22
66144;SHT31;52947;50.842;6.084;2023-06-14T10:05:41;27.31;40.08
66144;SHT31;52947;50.842;6.084;2023-06-14T10:08:14;27.60;39.70
66144;SHT31;52947;50.842;6.084;2023-06-14T10:10:44;27.64;39.21
66144;SHT31;52947;50.842;6.084;2023-06-14T10:13:12;27.91;38.16
66144;SHT31;52947;50.842;6.084;2023-06-14T10:15:50;27.94;37.93
66144;SHT31;52947;50.842;6.084;2023-06-14T10:18:26;26.30;38.69
66144;SHT31;52947;50.842;6.084;2023-06-14T10:21:06;27.23;38.11
66144;SHT31;52947;50.842;6.084;2023-06-14T10:23:42;26.79;38.48
66144;SHT31;52947;50.842;6.084;2023-06-14T10:26:18;25.98;40.16
66144;SHT31;52947;50.842;6.084;2023-06-14T10:28:56;26.51;39.87
66144;SHT31;52947;50.842;6.084;2023-06-14T10:31:42;27.43;39.84
66144;SHT31;52947;50.842;6.084;2023-06-14T10:34:11;25.90;40.56
66144;SHT31;52947;50.842;6.084;2023-06-14T10:36:41;26.37;39.79
66144;SHT31;52947;50.842;6.084;2023-06-14T10:39:12;27.04;38.37
66144;SHT31;52947;50.842;6.084;2023-06-14T10:41:49;27.46;37.53
66144;SHT31;52947;50.842;6.084;2023-06-14T10:44:40;27.57;36.53
66144;SHT31;52947;50.842;6.084;2023-06-14T10:47:23;28.41;36.03
66144;SHT31;52947;50.842;6.084;2023-06-14T10:49:53;27.09;38.26
66144;SHT31;52947;50.842;6.084;2023-06-14T10:52:24;26.04;38.17
66144;SHT31;52947;50.842;6.084;2023-06-14T10:55:10;27.09;37.17
66144;SHT31;52947;50.842;6.084;2023-06-14T10:57:43;28.25;35.74
66144;SHT31;52947;50.842;6.084;2023-06-14T11:00:19;28.67;35.66
66144;SHT31;52947;50.842;6.084;2023-06-14T11:06:14;27.29;36.19
66144;SHT31;52947;50.842;6.084;2023-06-14T11:09:04;26.58;36.46
66144;SHT31;52947;50.842;6.084;2023-06-14T11:11:35;27.23;36.47
66144;SHT31;52947;50.842;6.084;2023-06-14T11:14:05;28.93;35.63
66144;SHT31;52947;50.842;6.084;2023-06-14T11:16:33;28.80;34.62
66144;SHT31;52947;50.842;6.084;2023-06-14T11:19:02;27.90;36.11
66144;SHT31;52947;50.842;6.084;2023-06-14T11:21:33;27.00;36.94
66144;SHT31;52947;50.842;6.084;2023-06-14T11:24:01;26.63;37.60
66144;SHT31;52947;50.842;6.084;2023-06-14T11:26:30;28.02;37.02
66144;SHT31;52947;50.842;6.084;2023-06-14T11:29:01;27.04;37.34
66144;SHT31;52947;50.842;6.084;2023-06-14T11:31:29;25.65;38.72
66144;SHT31;52947;50.842;6.084;2023-06-14T11:33:58;26.18;38.27
66144;SHT31;52947;50.842;6.084;2023-06-14T11:36:27;26.85;36.95
66144;SHT31;52947;50.842;6.084;2023-06-14T11:39:02;25.59;38.65
66144;SHT31;52947;50.842;6.084;2023-06-14T11:41:33;27.53;37.07
66144;SHT31;52947;50.842;6.084;2023-06-14T11:44:02;27.97;36.87
66144;SHT31;52947;50.842;6.084;2023-06-14T11:46:30;28.66;36.48
66144;SHT31;52947;50.842;6.084;2023-06-14T11:48:58;28.08;37.88
66144;SHT31;52947;50.842;6.084;2023-06-14T11:51:30;27.40;38.33
66144;SHT31;52947;50.842;6.084;2023-06-14T11:53:58;26.93;38.56
66144;SHT31;52947;50.842;6.084;2023-06-14T11:56:27;26.80;39.40
66144;SHT31;52947;50.842;6.084;2023-06-14T11:58:55;27.31;38.69
66144;SHT31;52947;50.842;6.084;2023-06-14T12:01:24;26.48;40.47
66144;SHT31;52947;50.842;6.084;2023-06-14T12:03:53;27.43;39.87
66144;SHT31;52947;50.842;6.084;2023-06-14T12:06:26;28.11;39.60
66144;SHT31;52947;50.842;6.084;2023-06-14T12:08:56;28.33;38.40
66144;SHT31;52947;50.842;6.084;2023-06-14T12:11:31;27.84;38.55
66144;SHT31;52947;50.842;6.084;2023-06-14T12:14:00;27.71;39.56
66144;SHT31;52947;50.842;6.084;2023-06-14T12:16:31;28.29;38.93
66144;SHT31;52947;50.842;6.084;2023-06-14T12:19:01;26.85;40.89
66144;SHT31;52947;50.842;6.084;2023-06-14T12:21:36;27.33;40.19
66144;SHT31;52947;50.842;6.084;2023-06-14T12:24:05;26.27;41.35
66144;SHT31;52947;50.842;6.084;2023-06-14T12:26:38;27.67;38.89
66144;SHT31;52947;50.842;6.084;2023-06-14T12:29:06;27.43;40.13
66144;SHT31;52947;50.842;6.084;2023-06-14T12:31:34;27.50;39.46
66144;SHT31;52947;50.842;6.084;2023-06-14T12:34:02;27.97;37.70
66144;SHT31;52947;50.842;6.084;2023-06-14T12:36:30;27.22;38.97
66144;SHT31;52947;50.842;6.084;2023-06-14T12:38:59;27.64;38.49
66144;SHT31;52947;50.842;6.084;2023-06-14T12:41:26;28.55;38.40
66144;SHT31;52947;50.842;6.084;2023-06-14T12:43:56;27.94;37.77
66144;SHT31;52947;50.842;6.084;2023-06-14T12:46:26;26.83;39.05
66144;SHT31;52947;50.842;6.084;2023-06-14T12:48:54;27.30;39.14
66144;SHT31;52947;50.842;6.084;2023-06-14T12:51:22;26.67;39.45
66144;SHT31;52947;50.842;6.084;2023-06-14T12:53:50;26.71;39.42
66144;SHT31;52947;50.842;6.084;2023-06-14T12:56:18;26.11;39.95
66144;SHT31;52947;50.842;6.084;2023-06-14T12:58:48;26.14;40.56
66144;SHT31;52947;50.842;6.084;2023-06-14T13:01:17;26.04;40.89
66144;SHT31;52947;50.842;6.084;2023-06-14T13:03:45;25.76;41.05
66144;SHT31;52947;50.842;6.084;2023-06-14T13:06:13;25.86;41.28
66144;SHT31;52947;50.842;6.084;2023-06-14T13:08:41;25.86;40.67
66144;SHT31;52947;50.842;6.084;2023-06-14T13:11:09;25.98;40.28
66144;SHT31;52947;50.842;6.084;2023-06-14T13:13:38;25.81;39.82
66144;SHT31;52947;50.842;6.084;2023-06-14T13:16:06;25.32;41.46
66144;SHT31;52947;50.842;6.084;2023-06-14T13:18:35;25.76;40.95
66144;SHT31;52947;50.842;6.084;2023-06-14T13:21:03;26.49;40.03
66144;SHT31;52947;50.842;6.084;2023-06-14T13:23:31;26.73;40.55
66144;SHT31;52947;50.842;6.084;2023-06-14T13:25:59;25.84;40.94
66144;SHT31;52947;50.842;6.084;2023-06-14T13:28:29;26.35;39.72
66144;SHT31;52947;50.842;6.084;2023-06-14T13:30:58;26.44;39.82
66144;SHT31;52947;50.842;6.084;2023-06-14T13:33:26;26.25;38.84
66144;SHT31;52947;50.842;6.084;2023-06-14T13:35:55;25.65;40.02
66144;SHT31;52947;50.842;6.084;2023-06-14T13:38:23;24.98;41.62
66144;SHT31;52947;50.842;6.084;2023-06-14T13:40:51;25.02;41.44
66144;SHT31;52947;50.842;6.084;2023-06-14T13:43:19;24.34;43.24
66144;SHT31;52947;50.842;6.084;2023-06-14T13:45:49;24.67;42.39
66144;SHT31;52947;50.842;6.084;2023-06-14T13:48:17;24.92;42.12
66144;SHT31;52947;50.842;6.084;2023-06-14T13:50:45;25.14;44.18
66144;SHT31;52947;50.842;6.084;2023-06-14T13:53:15;24.96;43.55
66144;SHT31;52947;50.842;6.084;2023-06-14T13:55:43;24.60;43.00
66144;SHT31;52947;50.842;6.084;2023-06-14T13:58:11;24.91;43.87
66144;SHT31;52947;50.842;6.084;2023-06-14T14:00:41;24.95;44.15
66144;SHT31;52947;50.842;6.084;2023-06-14T14:03:09;25.26;43.91
66144;SHT31;52947;50.842;6.084;2023-06-14T14:05:36;25.02;43.71
66144;SHT31;52947;50.842;6.084;2023-06-14T14:08:04;25.15;43.62
66144;SHT31;52947;50.842;6.084;2023-06-14T14:10:34;24.96;44.95
66144;SHT31;52947;50.842;6.084;2023-06-14T14:13:02;24.48;45.09
66144;SHT31;52947;50.842;6.084;2023-06-14T14:15:30;24.64;44.58
66144;SHT31;52947;50.842;6.084;2023-06-14T14:18:01;24.87;44.84
66144;SHT31;52947;50.842;6.084;2023-06-14T14:20:30;25.15;45.48
66144;SHT31;52947;50.842;6.084;2023-06-14T14:22:59;24.40;45.57
66144;SHT31;52947;50.842;6.084;2023-06-14T14:25:27;24.98;45.77
66144;SHT31;52947;50.842;6.084;2023-06-14T14:27:56;25.12;46.02
66144;SHT31;52947;50.842;6.084;2023-06-14T14:30:24;24.88;45.18
66144;SHT31;52947;50.842;6.084;2023-06-14T14:32:53;24.81;46.10
66144;SHT31;52947;50.842;6.084;2023-06-14T14:35:21;24.94;45.87
66144;SHT31;52947;50.842;6.084;2023-06-14T14:37:51;24.67;46.61
66144;SHT31;52947;50.842;6.084;2023-06-14T14:40:20;24.94;46.18
66144;SHT31;52947;50.842;6.084;2023-06-14T14:42:48;24.85;47.19
66144;SHT31;52947;50.842;6.084;2023-06-14T14:45:17;24.21;46.13
66144;SHT31;52947;50.842;6.084;2023-06-14T14:47:45;24.56;46.56
66144;SHT31;52947;50.842;6.084;2023-06-14T14:50:13;24.98;46.66
66144;SHT31;52947;50.842;6.084;2023-06-14T14:52:43;24.87;45.79
66144;SHT31;52947;50.842;6.084;2023-06-14T14:55:11;25.02;45.99
66144;SHT31;52947;50.842;6.084;2023-06-14T14:57:39;24.67;46.66
66144;SHT31;52947;50.842;6.084;2023-06-14T15:00:08;24.74;47.14
66144;SHT31;52947;50.842;6.084;2023-06-14T15:02:37;24.99;46.62
66144;SHT31;52947;50.842;6.084;2023-06-14T15:05:06;24.61;46.28
66144;SHT31;52947;50.842;6.084;2023-06-14T15:07:34;24.58;47.09
66144;SHT31;52947;50.842;6.084;2023-06-14T15:10:02;24.50;46.56
66144;SHT31;52947;50.842;6.084;2023-06-14T15:12:31;24.77;46.46
66144;SHT31;52947;50.842;6.084;2023-06-14T15:14:59;24.89;45.72
66144;SHT31;52947;50.842;6.084;2023-06-14T15:17:27;24.84;46.40
66144;SHT31;52947;50.842;6.084;2023-06-14T15:19:56;24.91;46.16
66144;SHT31;52947;50.842;6.084;2023-06-14T15:22:24;24.78;46.42
66144;SHT31;52947;50.842;6.084;2023-06-14T15:24:52;25.01;46.73
66144;SHT31;52947;50.842;6.084;2023-06-14T15:27:20;24.95;45.36
66144;SHT31;52947;50.842;6.084;2023-06-14T15:29:49;24.79;45.83
66144;SHT31;52947;50.842;6.084;2023-06-14T15:32:17;24.53;45.63
66144;SHT31;52947;50.842;6.084;2023-06-14T15:34:46;24.67;46.39
66144;SHT31;52947;50.842;6.084;2023-06-14T15:37:16;24.31;45.46
66144;SHT31;52947;50.842;6.084;2023-06-14T15:39:44;24.57;45.84
66144;SHT31;52947;50.842;6.084;2023-06-14T15:42:12;24.82;45.53
66144;SHT31;52947;50.842;6.084;2023-06-14T15:44:40;24.94;46.22
66144;SHT31;52947;50.842;6.084;2023-06-14T15:47:08;24.92;45.01
66144;SHT31;52947;50.842;6.084;2023-06-14T15:49:36;24.94;44.52
66144;SHT31;52947;50.842;6.084;2023-06-14T15:52:05;25.29;44.69